Langes Corner, Wisconsin
Current Conditions -  °F | °C
As of 7:53 AM on Thursday 30 Oct 2014 (Local Time) from KGRB Reporting Station
Overcast Overcast  
Wind Chill: 38°   Ceiling: 9500
Heat Index: 38°   Visibility: 10mi
Dew Point: 35°   Wind: 3mph
Humidity: 89%   Direction: 220°SW
Pressure: 30.09"   Gusts: NA
Location:  44.363°N, 87.8227°W
Report Text: KGRB 301253Z 22003KT 10SM OVC095 03/02 A3009 RMK AO2 SLP195 T00330017
Loading
Personal Weather Stations






























Interactive Weather Map
Tropical Storm Tracking
New forecast layout! Learn more

10-Day Weather Forecast

Advertisements
Track Severe Weather on mobile